sensor_id;sensor_type;location;lat;lon;timestamp;pressure;altitude;pressure_sealevel;temperature;humidity
12247;BME280;6186;52.022;4.692;2023-02-28T00:02:07;103294.38;;;4.64;52.34
12247;BME280;6186;52.022;4.692;2023-02-28T00:04:32;103289.75;;;4.57;52.08
12247;BME280;6186;52.022;4.692;2023-02-28T00:06:57;103295.88;;;4.58;52.36
12247;BME280;6186;52.022;4.692;2023-02-28T00:09:23;103299.09;;;4.52;52.32
12247;BME280;6186;52.022;4.692;2023-02-28T00:11:48;103302.63;;;4.53;52.61
12247;BME280;6186;52.022;4.692;2023-02-28T00:14:13;103301.59;;;4.49;53.01
12247;BME280;6186;52.022;4.692;2023-02-28T00:16:39;103303.50;;;4.53;52.65
12247;BME280;6186;52.022;4.692;2023-02-28T00:19:04;103302.66;;;4.54;52.49
12247;BME280;6186;52.022;4.692;2023-02-28T00:21:29;103302.75;;;4.56;52.45
12247;BME280;6186;52.022;4.692;2023-02-28T00:23:55;103307.97;;;4.56;52.61
12247;BME280;6186;52.022;4.692;2023-02-28T00:26:20;103316.75;;;4.58;52.43
12247;BME280;6186;52.022;4.692;2023-02-28T00:28:45;103308.06;;;4.59;52.60
12247;BME280;6186;52.022;4.692;2023-02-28T00:31:11;103305.56;;;4.62;52.90
12247;BME280;6186;52.022;4.692;2023-02-28T00:33:36;103310.91;;;4.65;52.99
12247;BME280;6186;52.022;4.692;2023-02-28T00:36:07;103305.84;;;4.69;53.16
12247;BME280;6186;52.022;4.692;2023-02-28T00:38:32;103302.25;;;4.66;53.42
12247;BME280;6186;52.022;4.692;2023-02-28T00:40:58;103306.91;;;4.73;53.40
12247;BME280;6186;52.022;4.692;2023-02-28T00:43:29;103303.50;;;4.75;53.33
12247;BME280;6186;52.022;4.692;2023-02-28T00:45:54;103300.94;;;4.77;53.32
12247;BME280;6186;52.022;4.692;2023-02-28T00:48:20;103299.34;;;4.81;53.57
12247;BME280;6186;52.022;4.692;2023-02-28T00:50:48;103294.13;;;4.81;53.26
12247;BME280;6186;52.022;4.692;2023-02-28T00:53:14;103296.94;;;4.87;53.39
12247;BME280;6186;52.022;4.692;2023-02-28T00:55:39;103290.06;;;4.89;53.56
12247;BME280;6186;52.022;4.692;2023-02-28T00:58:05;103292.91;;;4.95;53.92
12247;BME280;6186;52.022;4.692;2023-02-28T01:00:30;103293.91;;;4.98;53.88
12247;BME280;6186;52.022;4.692;2023-02-28T01:02:56;103292.97;;;4.96;53.86
12247;BME280;6186;52.022;4.692;2023-02-28T01:05:21;103304.59;;;5.04;54.42
12247;BME280;6186;52.022;4.692;2023-02-28T01:07:46;103298.53;;;5.05;54.13
12247;BME280;6186;52.022;4.692;2023-02-28T01:10:12;103308.38;;;5.12;53.87
12247;BME280;6186;52.022;4.692;2023-02-28T01:12:37;103308.47;;;5.15;54.33
12247;BME280;6186;52.022;4.692;2023-02-28T01:15:03;103310.31;;;5.18;54.56
12247;BME280;6186;52.022;4.692;2023-02-28T01:17:28;103306.84;;;5.19;54.18
12247;BME280;6186;52.022;4.692;2023-02-28T01:19:55;103310.50;;;5.22;54.09
12247;BME280;6186;52.022;4.692;2023-02-28T01:22:21;103312.19;;;5.22;54.18
12247;BME280;6186;52.022;4.692;2023-02-28T01:24:46;103312.19;;;5.22;54.11
12247;BME280;6186;52.022;4.692;2023-02-28T01:27:11;103299.97;;;5.21;54.39
12247;BME280;6186;52.022;4.692;2023-02-28T01:29:37;103303.50;;;5.23;54.22
12247;BME280;6186;52.022;4.692;2023-02-28T01:32:02;103306.97;;;5.22;54.19
12247;BME280;6186;52.022;4.692;2023-02-28T01:34:27;103308.78;;;5.24;54.55
12247;BME280;6186;52.022;4.692;2023-02-28T01:36:53;103303.66;;;5.26;54.20
12247;BME280;6186;52.022;4.692;2023-02-28T01:39:18;103302.03;;;5.29;54.91
12247;BME280;6186;52.022;4.692;2023-02-28T01:41:44;103289.66;;;5.24;54.42
12247;BME280;6186;52.022;4.692;2023-02-28T01:47:12;103301.19;;;5.30;54.26
12247;BME280;6186;52.022;4.692;2023-02-28T01:49:37;103294.19;;;5.29;54.78
12247;BME280;6186;52.022;4.692;2023-02-28T01:52:03;103277.44;;;5.24;54.85
12247;BME280;6186;52.022;4.692;2023-02-28T01:54:31;103285.47;;;5.29;54.81
12247;BME280;6186;52.022;4.692;2023-02-28T01:57:04;103286.38;;;5.29;54.31
12247;BME280;6186;52.022;4.692;2023-02-28T01:59:41;103268.72;;;5.22;54.47
12247;BME280;6186;52.022;4.692;2023-02-28T02:02:18;103284.56;;;5.28;54.54
12247;BME280;6186;52.022;4.692;2023-02-28T02:07:18;103279.19;;;5.24;54.37
12247;BME280;6186;52.022;4.692;2023-02-28T02:09:44;103273.84;;;5.21;54.73
12247;BME280;6186;52.022;4.692;2023-02-28T02:12:23;103275.69;;;5.23;54.27
12247;BME280;6186;52.022;4.692;2023-02-28T02:15:23;103273.94;;;5.22;54.47
12247;BME280;6186;52.022;4.692;2023-02-28T02:17:53;103274.78;;;5.23;54.37
12247;BME280;6186;52.022;4.692;2023-02-28T02:23:47;103267.00;;;5.24;54.68
12247;BME280;6186;52.022;4.692;2023-02-28T02:26:44;103269.56;;;5.23;54.97
12247;BME280;6186;52.022;4.692;2023-02-28T02:29:52;103263.50;;;5.22;54.85
12247;BME280;6186;52.022;4.692;2023-02-28T02:35:23;103259.84;;;5.19;54.72
12247;BME280;6186;52.022;4.692;2023-02-28T02:40:35;103256.38;;;5.18;54.94
12247;BME280;6186;52.022;4.692;2023-02-28T02:45:40;103246.66;;;5.14;55.26
12247;BME280;6186;52.022;4.692;2023-02-28T02:48:11;103255.56;;;5.21;55.27
12247;BME280;6186;52.022;4.692;2023-02-28T02:50:53;103252.91;;;5.19;55.27
12247;BME280;6186;52.022;4.692;2023-02-28T02:53:24;103244.94;;;5.15;54.96
12247;BME280;6186;52.022;4.692;2023-02-28T02:55:53;103265.03;;;5.17;55.45
12247;BME280;6186;52.022;4.692;2023-02-28T02:58:24;103260.69;;;5.18;55.49
12247;BME280;6186;52.022;4.692;2023-02-28T03:00:56;103247.59;;;5.16;54.72
12247;BME280;6186;52.022;4.692;2023-02-28T03:03:23;103250.22;;;5.16;55.41
12247;BME280;6186;52.022;4.692;2023-02-28T03:05:56;103261.59;;;5.18;54.93
12247;BME280;6186;52.022;4.692;2023-02-28T03:08:22;103257.16;;;5.16;55.37
12247;BME280;6186;52.022;4.692;2023-02-28T03:10:52;103265.94;;;5.18;55.12
12247;BME280;6186;52.022;4.692;2023-02-28T03:26:58;103275.25;;;5.11;55.38
12247;BME280;6186;52.022;4.692;2023-02-28T03:29:35;103274.44;;;5.12;55.38
12247;BME280;6186;52.022;4.692;2023-02-28T03:32:08;103273.59;;;5.13;55.21
12247;BME280;6186;52.022;4.692;2023-02-28T03:34:46;103271.91;;;5.15;55.64
12247;BME280;6186;52.022;4.692;2023-02-28T03:37:19;103269.31;;;5.15;55.16
12247;BME280;6186;52.022;4.692;2023-02-28T03:39:54;103263.31;;;5.18;55.61
12247;BME280;6186;52.022;4.692;2023-02-28T03:42:24;103265.94;;;5.18;55.45
12247;BME280;6186;52.022;4.692;2023-02-28T03:47:25;103268.59;;;5.19;55.46
12247;BME280;6186;52.022;4.692;2023-02-28T03:49:57;103267.75;;;5.20;55.63
12247;BME280;6186;52.022;4.692;2023-02-28T03:52:28;103265.16;;;5.20;56.19
12247;BME280;6186;52.022;4.692;2023-02-28T03:55:02;103262.53;;;5.20;56.06
12247;BME280;6186;52.022;4.692;2023-02-28T03:57:58;103258.31;;;5.24;56.21
12247;BME280;6186;52.022;4.692;2023-02-28T04:00:36;103256.66;;;5.26;56.19
12247;BME280;6186;52.022;4.692;2023-02-28T04:03:03;103260.25;;;5.29;55.85
12247;BME280;6186;52.022;4.692;2023-02-28T04:05:30;103256.00;;;5.33;56.28
12247;BME280;6186;52.022;4.692;2023-02-28T04:08:04;103257.84;;;5.35;56.53
12247;BME280;6186;52.022;4.692;2023-02-28T04:10:29;103239.34;;;5.29;56.34
12247;BME280;6186;52.022;4.692;2023-02-28T04:12:54;103254.41;;;5.36;56.20
12247;BME280;6186;52.022;4.692;2023-02-28T04:15:20;103253.56;;;5.37;56.59
12247;BME280;6186;52.022;4.692;2023-02-28T04:17:47;103257.94;;;5.38;56.44
12247;BME280;6186;52.022;4.692;2023-02-28T04:20:13;103259.66;;;5.38;56.91
12247;BME280;6186;52.022;4.692;2023-02-28T04:22:38;103266.56;;;5.36;56.62
12247;BME280;6186;52.022;4.692;2023-02-28T04:25:04;103270.91;;;5.35;55.82
12247;BME280;6186;52.022;4.692;2023-02-28T04:27:30;103263.09;;;5.35;56.51
12247;BME280;6186;52.022;4.692;2023-02-28T04:29:56;103268.31;;;5.35;56.55
12247;BME280;6186;52.022;4.692;2023-02-28T04:32:21;103271.78;;;5.36;56.92
12247;BME280;6186;52.022;4.692;2023-02-28T04:34:46;103277.00;;;5.36;56.29
12247;BME280;6186;52.022;4.692;2023-02-28T04:37:12;103274.38;;;5.36;56.56
12247;BME280;6186;52.022;4.692;2023-02-28T04:39:37;103262.06;;;5.32;56.35
12247;BME280;6186;52.022;4.692;2023-02-28T04:42:03;103267.44;;;5.36;56.79
12247;BME280;6186;52.022;4.692;2023-02-28T04:44:28;103274.47;;;5.37;56.24
12247;BME280;6186;52.022;4.692;2023-02-28T04:46:54;103268.34;;;5.37;57.01
12247;BME280;6186;52.022;4.692;2023-02-28T04:49:19;103280.50;;;5.36;56.43
12247;BME280;6186;52.022;4.692;2023-02-28T04:51:44;103275.25;;;5.35;56.88
12247;BME280;6186;52.022;4.692;2023-02-28T04:54:10;103276.00;;;5.32;56.58
12247;BME280;6186;52.022;4.692;2023-02-28T04:56:35;103281.13;;;5.29;56.70
12247;BME280;6186;52.022;4.692;2023-02-28T04:59:01;103280.16;;;5.26;56.97
12247;BME280;6186;52.022;4.692;2023-02-28T05:01:28;103276.47;;;5.21;56.29
12247;BME280;6186;52.022;4.692;2023-02-28T05:03:56;103276.41;;;5.19;56.85
12247;BME280;6186;52.022;4.692;2023-02-28T05:06:24;103282.50;;;5.18;56.77
12247;BME280;6186;52.022;4.692;2023-02-28T05:08:50;103279.94;;;5.20;56.39
12247;BME280;6186;52.022;4.692;2023-02-28T05:11:17;103271.25;;;5.21;57.06
12247;BME280;6186;52.022;4.692;2023-02-28T05:13:42;103278.22;;;5.20;56.70
12247;BME280;6186;52.022;4.692;2023-02-28T05:16:08;103276.53;;;5.22;56.84
12247;BME280;6186;52.022;4.692;2023-02-28T05:18:33;103283.56;;;5.25;57.08
12247;BME280;6186;52.022;4.692;2023-02-28T05:20:59;103281.97;;;5.28;57.09
12247;BME280;6186;52.022;4.692;2023-02-28T05:23:27;103282.91;;;5.30;57.66
12247;BME280;6186;52.022;4.692;2023-02-28T05:25:52;103277.53;;;5.26;56.98
12247;BME280;6186;52.022;4.692;2023-02-28T05:28:19;103279.34;;;5.28;57.15
12247;BME280;6186;52.022;4.692;2023-02-28T05:30:44;103287.19;;;5.28;57.42
12247;BME280;6186;52.022;4.692;2023-02-28T05:33:11;103284.56;;;5.28;56.89
12247;BME280;6186;52.022;4.692;2023-02-28T05:35:41;103274.75;;;5.21;57.39
12247;BME280;6186;52.022;4.692;2023-02-28T05:38:08;103278.34;;;5.25;56.81
12247;BME280;6186;52.022;4.692;2023-02-28T05:40:33;103278.31;;;5.23;57.41
12247;BME280;6186;52.022;4.692;2023-02-28T05:42:58;103289.59;;;5.22;57.73
12247;BME280;6186;52.022;4.692;2023-02-28T05:45:24;103287.00;;;5.22;57.31
12247;BME280;6186;52.022;4.692;2023-02-28T05:47:53;103293.97;;;5.23;57.06
12247;BME280;6186;52.022;4.692;2023-02-28T05:50:18;103291.25;;;5.20;57.03
12247;BME280;6186;52.022;4.692;2023-02-28T05:52:44;103294.59;;;5.16;57.09
12247;BME280;6186;52.022;4.692;2023-02-28T05:55:09;103291.75;;;5.10;57.39
12247;BME280;6186;52.022;4.692;2023-02-28T05:57:34;103289.81;;;5.05;56.67
12247;BME280;6186;52.022;4.692;2023-02-28T06:00:00;103290.34;;;4.96;56.81
12247;BME280;6186;52.022;4.692;2023-02-28T06:02:25;103271.28;;;4.75;56.88
12247;BME280;6186;52.022;4.692;2023-02-28T06:04:51;103284.31;;;4.75;57.44
12247;BME280;6186;52.022;4.692;2023-02-28T06:07:16;103284.78;;;4.63;56.99
12247;BME280;6186;52.022;4.692;2023-02-28T06:09:42;103285.19;;;4.52;56.68
12247;BME280;6186;52.022;4.692;2023-02-28T06:12:09;103288.28;;;4.42;56.52
12247;BME280;6186;52.022;4.692;2023-02-28T06:14:35;103282.72;;;4.33;56.57
12247;BME280;6186;52.022;4.692;2023-02-28T06:17:01;103286.00;;;4.29;56.48
12247;BME280;6186;52.022;4.692;2023-02-28T06:19:27;103284.13;;;4.25;56.63
12247;BME280;6186;52.022;4.692;2023-02-28T06:21:53;103291.81;;;4.22;56.99
12247;BME280;6186;52.022;4.692;2023-02-28T06:24:20;103284.41;;;4.10;56.38
12247;BME280;6186;52.022;4.692;2023-02-28T06:26:45;103279.84;;;4.05;57.00
12247;BME280;6186;52.022;4.692;2023-02-28T06:29:11;103282.44;;;4.05;56.92
12247;BME280;6186;52.022;4.692;2023-02-28T06:31:36;103284.84;;;4.00;57.16
12247;BME280;6186;52.022;4.692;2023-02-28T06:34:04;103285.50;;;3.95;56.94
12247;BME280;6186;52.022;4.692;2023-02-28T06:36:30;103291.59;;;3.95;57.05
12247;BME280;6186;52.022;4.692;2023-02-28T06:38:56;103292.34;;;3.93;57.08
12247;BME280;6186;52.022;4.692;2023-02-28T06:41:24;103289.69;;;3.91;57.59
12247;BME280;6186;52.022;4.692;2023-02-28T06:43:49;103297.50;;;3.91;57.43
12247;BME280;6186;52.022;4.692;2023-02-28T06:46:15;103299.28;;;3.92;57.35
12247;BME280;6186;52.022;4.692;2023-02-28T06:48:41;103301.75;;;3.89;57.40
12247;BME280;6186;52.022;4.692;2023-02-28T06:51:13;103298.91;;;3.83;57.24
12247;BME280;6186;52.022;4.692;2023-02-28T06:53:40;103293.44;;;3.77;57.33
12247;BME280;6186;52.022;4.692;2023-02-28T06:56:10;103310.84;;;3.78;57.94
12247;BME280;6186;52.022;4.692;2023-02-28T06:58:37;103319.38;;;3.74;57.93
12247;BME280;6186;52.022;4.692;2023-02-28T07:01:03;103318.53;;;3.75;57.40
12247;BME280;6186;52.022;4.692;2023-02-28T07:03:28;103318.09;;;3.64;57.57
12247;BME280;6186;52.022;4.692;2023-02-28T07:05:54;103326.91;;;3.68;57.70
12247;BME280;6186;52.022;4.692;2023-02-28T07:08:22;103327.81;;;3.68;57.63
12247;BME280;6186;52.022;4.692;2023-02-28T07:10:47;103327.66;;;3.65;57.54
12247;BME280;6186;52.022;4.692;2023-02-28T07:13:12;103330.25;;;3.65;57.75
12247;BME280;6186;52.022;4.692;2023-02-28T07:15:37;103334.50;;;3.63;58.10
12247;BME280;6186;52.022;4.692;2023-02-28T07:18:03;103333.59;;;3.61;58.03
12247;BME280;6186;52.022;4.692;2023-02-28T07:20:29;103338.66;;;3.58;57.77
12247;BME280;6186;52.022;4.692;2023-02-28T07:22:54;103338.59;;;3.57;57.79
12247;BME280;6186;52.022;4.692;2023-02-28T07:25:30;103332.41;;;3.55;57.77
12247;BME280;6186;52.022;4.692;2023-02-28T07:27:56;103329.75;;;3.53;58.03
12247;BME280;6186;52.022;4.692;2023-02-28T07:30:21;103322.63;;;3.49;58.20
12247;BME280;6186;52.022;4.692;2023-02-28T07:32:47;103338.72;;;3.60;58.03
12247;BME280;6186;52.022;4.692;2023-02-28T07:35:12;103332.75;;;3.62;58.63
12247;BME280;6186;52.022;4.692;2023-02-28T07:37:40;103327.53;;;3.62;58.61
12247;BME280;6186;52.022;4.692;2023-02-28T07:40:09;103338.91;;;3.64;58.57
12247;BME280;6186;52.022;4.692;2023-02-28T07:42:37;103341.47;;;3.63;58.43
12247;BME280;6186;52.022;4.692;2023-02-28T07:45:03;103338.91;;;3.64;58.20
12247;BME280;6186;52.022;4.692;2023-02-28T07:47:29;103346.78;;;3.66;58.66
12247;BME280;6186;52.022;4.692;2023-02-28T07:49:55;103339.88;;;3.66;58.71
12247;BME280;6186;52.022;4.692;2023-02-28T07:52:21;103338.16;;;3.67;58.61
12247;BME280;6186;52.022;4.692;2023-02-28T07:54:46;103342.47;;;3.66;58.39
12247;BME280;6186;52.022;4.692;2023-02-28T07:57:11;103346.72;;;3.64;59.01
12247;BME280;6186;52.022;4.692;2023-02-28T07:59:37;103340.69;;;3.65;58.52
12247;BME280;6186;52.022;4.692;2023-02-28T08:02:02;103328.38;;;3.61;58.93
12247;BME280;6186;52.022;4.692;2023-02-28T08:04:27;103319.41;;;3.55;58.71
12247;BME280;6186;52.022;4.692;2023-02-28T08:06:53;103326.84;;;3.66;58.58
12247;BME280;6186;52.022;4.692;2023-02-28T08:09:19;103338.22;;;3.68;59.03
12247;BME280;6186;52.022;4.692;2023-02-28T08:11:44;103340.94;;;3.71;59.15
12247;BME280;6186;52.022;4.692;2023-02-28T08:14:10;103335.81;;;3.73;59.41
12247;BME280;6186;52.022;4.692;2023-02-28T08:16:35;103330.69;;;3.74;59.39
12247;BME280;6186;52.022;4.692;2023-02-28T08:19:00;103325.38;;;3.73;59.48
12247;BME280;6186;52.022;4.692;2023-02-28T08:21:26;103328.13;;;3.76;59.40
12247;BME280;6186;52.022;4.692;2023-02-28T08:23:51;103323.19;;;3.82;59.46
12247;BME280;6186;52.022;4.692;2023-02-28T08:26:17;103325.97;;;3.87;60.02
12247;BME280;6186;52.022;4.692;2023-02-28T08:28:43;103326.88;;;3.87;59.67
12247;BME280;6186;52.022;4.692;2023-02-28T08:31:11;103326.16;;;3.91;59.59
12247;BME280;6186;52.022;4.692;2023-02-28T08:33:41;103325.28;;;3.91;60.06
12247;BME280;6186;52.022;4.692;2023-02-28T08:36:07;103331.31;;;3.90;59.48
12247;BME280;6186;52.022;4.692;2023-02-28T08:38:33;103332.97;;;3.88;60.09
12247;BME280;6186;52.022;4.692;2023-02-28T08:41:00;103325.09;;;3.86;60.00
12247;BME280;6186;52.022;4.692;2023-02-28T08:43:27;103322.59;;;3.89;60.11
12247;BME280;6186;52.022;4.692;2023-02-28T08:45:54;103326.13;;;3.90;59.75
12247;BME280;6186;52.022;4.692;2023-02-28T08:48:22;103323.56;;;3.91;60.36
12247;BME280;6186;52.022;4.692;2023-02-28T08:51:01;103324.56;;;3.95;60.36
12247;BME280;6186;52.022;4.692;2023-02-28T08:53:27;103322.94;;;3.97;60.08
12247;BME280;6186;52.022;4.692;2023-02-28T08:55:59;103326.50;;;3.99;60.46
12247;BME280;6186;52.022;4.692;2023-02-28T08:58:25;103326.59;;;4.02;60.69
12247;BME280;6186;52.022;4.692;2023-02-28T09:00:51;103319.72;;;4.04;60.94
12247;BME280;6186;52.022;4.692;2023-02-28T09:03:16;103325.84;;;4.04;60.98
12247;BME280;6186;52.022;4.692;2023-02-28T09:05:58;103327.69;;;4.07;60.97
12247;BME280;6186;52.022;4.692;2023-02-28T09:08:25;103325.22;;;4.10;61.06
12247;BME280;6186;52.022;4.692;2023-02-28T09:10:50;103328.88;;;4.15;61.30
12247;BME280;6186;52.022;4.692;2023-02-28T09:13:17;103321.06;;;4.15;61.44
12247;BME280;6186;52.022;4.692;2023-02-28T09:15:42;103332.00;;;4.27;61.27
12247;BME280;6186;52.022;4.692;2023-02-28T09:18:08;103332.19;;;4.31;61.57
12247;BME280;6186;52.022;4.692;2023-02-28T09:20:33;103335.84;;;4.36;61.29
12247;BME280;6186;52.022;4.692;2023-02-28T09:22:58;103338.66;;;4.41;61.77
12247;BME280;6186;52.022;4.692;2023-02-28T09:25:24;103336.16;;;4.44;61.82
12247;BME280;6186;52.022;4.692;2023-02-28T09:27:49;103338.13;;;4.49;61.73
12247;BME280;6186;52.022;4.692;2023-02-28T09:30:15;103344.28;;;4.51;62.11
12247;BME280;6186;52.022;4.692;2023-02-28T09:32:41;103332.00;;;4.49;62.38
12247;BME280;6186;52.022;4.692;2023-02-28T09:35:07;103342.88;;;4.59;61.84
12247;BME280;6186;52.022;4.692;2023-02-28T09:37:32;103335.16;;;4.62;62.46
12247;BME280;6186;52.022;4.692;2023-02-28T09:39:57;103337.81;;;4.64;62.56
12247;BME280;6186;52.022;4.692;2023-02-28T09:42:32;103346.66;;;4.67;62.31
12247;BME280;6186;52.022;4.692;2023-02-28T09:45:00;103344.13;;;4.69;62.74
12247;BME280;6186;52.022;4.692;2023-02-28T09:47:32;103342.38;;;4.69;62.21
12247;BME280;6186;52.022;4.692;2023-02-28T09:50:06;103342.47;;;4.71;62.84
12247;BME280;6186;52.022;4.692;2023-02-28T09:52:36;103341.63;;;4.72;62.87
12247;BME280;6186;52.022;4.692;2023-02-28T09:55:20;103345.06;;;4.71;63.00
12247;BME280;6186;52.022;4.692;2023-02-28T09:57:48;103345.84;;;4.68;62.54
12247;BME280;6186;52.022;4.692;2023-02-28T10:00:20;103348.41;;;4.67;63.07
12247;BME280;6186;52.022;4.692;2023-02-28T10:05:41;103343.03;;;4.64;62.62
12247;BME280;6186;52.022;4.692;2023-02-28T10:08:15;103338.72;;;4.64;62.64
12247;BME280;6186;52.022;4.692;2023-02-28T10:10:47;103344.13;;;4.69;62.84
12247;BME280;6186;52.022;4.692;2023-02-28T10:13:39;103345.78;;;4.67;63.26
12247;BME280;6186;52.022;4.692;2023-02-28T10:16:14;103339.66;;;4.66;63.02
12247;BME280;6186;52.022;4.692;2023-02-28T10:18:46;103337.97;;;4.67;62.89
12247;BME280;6186;52.022;4.692;2023-02-28T10:24:03;103341.63;;;4.72;63.41
12247;BME280;6186;52.022;4.692;2023-02-28T10:26:31;103341.63;;;4.72;63.85
12247;BME280;6186;52.022;4.692;2023-02-28T10:28:57;103340.81;;;4.73;63.75
12247;BME280;6186;52.022;4.692;2023-02-28T10:31:22;103339.31;;;4.79;63.69
12247;BME280;6186;52.022;4.692;2023-02-28T10:33:48;103341.22;;;4.84;64.62
12247;BME280;6186;52.022;4.692;2023-02-28T10:36:16;103341.59;;;4.94;64.50
12247;BME280;6186;52.022;4.692;2023-02-28T10:38:44;103337.97;;;5.13;65.32
12247;BME280;6186;52.022;4.692;2023-02-28T10:41:12;103336.41;;;5.18;65.29
12247;BME280;6186;52.022;4.692;2023-02-28T10:43:39;103333.06;;;5.45;66.34
12247;BME280;6186;52.022;4.692;2023-02-28T10:48:36;103316.53;;;6.77;72.01
12247;BME280;6186;52.022;4.692;2023-02-28T10:51:04;103319.09;;;8.00;79.14
12247;BME280;6186;52.022;4.692;2023-02-28T10:53:32;103305.16;;;9.15;84.15
12247;BME280;6186;52.022;4.692;2023-02-28T10:56:17;103305.47;;;10.27;87.84
12247;BME280;6186;52.022;4.692;2023-02-28T10:58:47;103301.19;;;11.00;89.74
12247;BME280;6186;52.022;4.692;2023-02-28T11:01:27;103288.00;;;11.79;92.30
12247;BME280;6186;52.022;4.692;2023-02-28T11:03:58;103293.09;;;12.72;95.97
12247;BME280;6186;52.022;4.692;2023-02-28T11:06:30;103292.50;;;13.53;96.93
12247;BME280;6186;52.022;4.692;2023-02-28T11:08:59;103283.72;;;13.87;95.88
12247;BME280;6186;52.022;4.692;2023-02-28T11:11:27;103283.75;;;14.34;97.68
12247;BME280;6186;52.022;4.692;2023-02-28T11:13:56;103274.75;;;14.91;99.81
12247;BME280;6186;52.022;4.692;2023-02-28T11:16:31;103279.81;;;15.36;99.30
12247;BME280;6186;52.022;4.692;2023-02-28T11:18:57;103271.19;;;14.92;92.90
12247;BME280;6186;52.022;4.692;2023-02-28T11:21:34;103274.91;;;13.82;84.94
12247;BME280;6186;52.022;4.692;2023-02-28T11:24:25;103282.47;;;12.66;80.55
12247;BME280;6186;52.022;4.692;2023-02-28T11:26:52;103282.00;;;11.94;78.59
12247;BME280;6186;52.022;4.692;2023-02-28T11:29:27;103284.88;;;11.29;76.26
12247;BME280;6186;52.022;4.692;2023-02-28T11:34:35;103283.16;;;10.64;75.61
12247;BME280;6186;52.022;4.692;2023-02-28T11:37:02;103277.75;;;10.52;75.64
12247;BME280;6186;52.022;4.692;2023-02-28T11:39:32;103275.16;;;10.57;76.36
12247;BME280;6186;52.022;4.692;2023-02-28T11:45:00;103266.09;;;10.35;74.13
12247;BME280;6186;52.022;4.692;2023-02-28T11:50:19;103271.78;;;10.65;76.99
12247;BME280;6186;52.022;4.692;2023-02-28T11:55:30;103260.06;;;11.99;84.54
12247;BME280;6186;52.022;4.692;2023-02-28T12:01:01;103243.03;;;14.58;95.72
12247;BME280;6186;52.022;4.692;2023-02-28T12:03:42;103238.00;;;15.70;98.03
12247;BME280;6186;52.022;4.692;2023-02-28T12:11:56;103224.38;;;18.01;100.00
12247;BME280;6186;52.022;4.692;2023-02-28T12:14:29;103226.28;;;18.40;100.00
12247;BME280;6186;52.022;4.692;2023-02-28T12:17:13;103215.88;;;18.72;100.00
12247;BME280;6186;52.022;4.692;2023-02-28T12:22:37;103220.53;;;19.04;97.19
12247;BME280;6186;52.022;4.692;2023-02-28T12:28:12;103206.97;;;19.13;94.81
12247;BME280;6186;52.022;4.692;2023-02-28T12:31:19;103213.41;;;19.42;95.80
12247;BME280;6186;52.022;4.692;2023-02-28T12:33:44;103224.44;;;19.64;94.74
12247;BME280;6186;52.022;4.692;2023-02-28T12:36:13;103207.63;;;19.59;92.00
12247;BME280;6186;52.022;4.692;2023-02-28T12:38:50;103216.38;;;19.65;91.94
12247;BME280;6186;52.022;4.692;2023-02-28T12:44:07;103204.75;;;19.68;90.73
12247;BME280;6186;52.022;4.692;2023-02-28T12:46:37;103204.91;;;19.96;91.98
12247;BME280;6186;52.022;4.692;2023-02-28T12:49:08;103204.53;;;20.09;90.04
12247;BME280;6186;52.022;4.692;2023-02-28T12:51:35;103214.31;;;20.10;88.12
12247;BME280;6186;52.022;4.692;2023-02-28T12:54:12;103201.31;;;20.30;88.26
12247;BME280;6186;52.022;4.692;2023-02-28T12:59:31;103194.84;;;20.68;88.00
12247;BME280;6186;52.022;4.692;2023-02-28T13:02:40;103186.66;;;20.73;86.27
12247;BME280;6186;52.022;4.692;2023-02-28T13:05:32;103180.47;;;20.72;85.77
12247;BME280;6186;52.022;4.692;2023-02-28T13:10:46;103174.13;;;20.45;81.02
12247;BME280;6186;52.022;4.692;2023-02-28T13:13:18;103175.97;;;20.43;80.28
12247;BME280;6186;52.022;4.692;2023-02-28T13:16:00;103181.94;;;20.51;80.80
12247;BME280;6186;52.022;4.692;2023-02-28T13:21:00;103170.34;;;20.52;79.47
12247;BME280;6186;52.022;4.692;2023-02-28T13:23:55;103162.69;;;20.70;79.78
12247;BME280;6186;52.022;4.692;2023-02-28T13:29:00;103155.91;;;21.15;79.40
12247;BME280;6186;52.022;4.692;2023-02-28T13:31:27;103143.53;;;21.38;79.78
12247;BME280;6186;52.022;4.692;2023-02-28T13:36:31;103144.84;;;21.25;76.90
12247;BME280;6186;52.022;4.692;2023-02-28T13:38:58;103147.75;;;21.19;76.55
12247;BME280;6186;52.022;4.692;2023-02-28T13:49:31;103140.59;;;20.61;70.17
12247;BME280;6186;52.022;4.692;2023-02-28T13:57:18;103145.25;;;19.94;60.48
12247;BME280;6186;52.022;4.692;2023-02-28T14:05:36;103141.59;;;18.08;51.83
12247;BME280;6186;52.022;4.692;2023-02-28T14:08:10;103141.78;;;17.49;50.87
12247;BME280;6186;52.022;4.692;2023-02-28T14:10:47;103124.16;;;16.87;50.15
12247;BME280;6186;52.022;4.692;2023-02-28T14:13:39;103130.88;;;16.50;50.59
12247;BME280;6186;52.022;4.692;2023-02-28T14:16:13;103132.94;;;16.25;50.98
12247;BME280;6186;52.022;4.692;2023-02-28T14:18:50;103128.91;;;15.91;50.59
12247;BME280;6186;52.022;4.692;2023-02-28T14:21:29;103131.88;;;15.58;50.60
12247;BME280;6186;52.022;4.692;2023-02-28T14:26:55;103130.88;;;14.51;48.83
12247;BME280;6186;52.022;4.692;2023-02-28T14:32:21;103124.75;;;14.17;48.94
12247;BME280;6186;52.022;4.692;2023-02-28T14:34:55;103124.84;;;13.92;48.82
12247;BME280;6186;52.022;4.692;2023-02-28T14:37:28;103118.72;;;13.63;48.83
12247;BME280;6186;52.022;4.692;2023-02-28T14:39:55;103128.47;;;13.49;48.27
12247;BME280;6186;52.022;4.692;2023-02-28T14:42:33;103130.22;;;13.15;47.84
12247;BME280;6186;52.022;4.692;2023-02-28T14:44:59;103129.28;;;12.98;47.82
12247;BME280;6186;52.022;4.692;2023-02-28T14:47:31;103123.09;;;12.88;48.20
12247;BME280;6186;52.022;4.692;2023-02-28T14:49:59;103086.00;;;12.57;48.23
12247;BME280;6186;52.022;4.692;2023-02-28T14:52:27;103129.28;;;12.83;48.20
12247;BME280;6186;52.022;4.692;2023-02-28T14:55:00;103130.97;;;12.64;47.64
12247;BME280;6186;52.022;4.692;2023-02-28T14:57:39;103132.66;;;12.41;47.65
12247;BME280;6186;52.022;4.692;2023-02-28T15:00:27;103134.34;;;12.27;47.67
12247;BME280;6186;52.022;4.692;2023-02-28T15:02:54;103131.72;;;12.24;47.73
12247;BME280;6186;52.022;4.692;2023-02-28T15:05:32;103135.22;;;12.23;47.73
12247;BME280;6186;52.022;4.692;2023-02-28T15:10:32;103125.44;;;12.04;47.68